createdAt,value
2019-03-06T00:01:17.782Z,16.20
2019-03-06T00:03:45.969Z,17.13
2019-03-06T00:06:17.013Z,16.30
2019-03-06T00:08:44.083Z,16.87
2019-03-06T00:11:12.268Z,15.23
2019-03-06T00:13:40.504Z,18.60
2019-03-06T00:16:08.681Z,17.43
2019-03-06T00:18:36.896Z,16.17
2019-03-06T00:21:06.085Z,22.60
2019-03-06T00:23:34.429Z,16.07
2019-03-06T00:26:02.600Z,17.67
2019-03-06T00:28:30.779Z,16.30
2019-03-06T00:30:59.008Z,20.07
2019-03-06T00:33:27.256Z,16.83
2019-03-06T00:35:57.118Z,20.70
2019-03-06T00:38:25.298Z,12.93
2019-03-06T00:41:01.349Z,15.53
2019-03-06T00:43:29.527Z,13.00
2019-03-06T00:45:57.744Z,18.07
2019-03-06T00:48:25.949Z,14.10
2019-03-06T00:50:54.124Z,18.20
2019-03-06T00:53:22.341Z,14.37
2019-03-06T00:55:50.628Z,19.00
2019-03-06T00:58:18.844Z,16.73
2019-03-06T01:00:47.136Z,15.47
2019-03-06T01:03:16.277Z,15.90
2019-03-06T01:05:44.501Z,17.20
2019-03-06T01:08:12.696Z,16.73
2019-03-06T01:10:40.977Z,16.57
2019-03-06T01:13:09.196Z,17.53
2019-03-06T01:15:37.370Z,18.17
2019-03-06T01:18:05.601Z,18.20
2019-03-06T01:20:33.804Z,14.57
2019-03-06T01:23:02.029Z,18.47
2019-03-06T01:25:30.247Z,17.97
2019-03-06T01:27:58.699Z,16.83
2019-03-06T01:30:27.385Z,14.60
2019-03-06T01:33:06.457Z,15.33
2019-03-06T01:35:52.368Z,17.10
2019-03-06T01:38:28.165Z,22.30
2019-03-06T01:41:04.052Z,15.47
2019-03-06T01:43:46.124Z,18.90
2019-03-06T01:46:14.304Z,19.83
2019-03-06T01:48:42.539Z,19.00
2019-03-06T01:51:11.707Z,21.83
2019-03-06T01:53:40.137Z,20.00
2019-03-06T01:56:08.619Z,18.20
2019-03-06T01:58:36.833Z,18.10
2019-03-06T02:01:05.109Z,23.00
2019-03-06T02:03:33.305Z,18.93
2019-03-06T02:06:01.517Z,21.27
2019-03-06T02:08:29.741Z,21.07
2019-03-06T02:10:58.037Z,17.57
2019-03-06T02:13:26.257Z,20.53
2019-03-06T02:15:54.429Z,21.30
2019-03-06T02:18:22.624Z,22.60
2019-03-06T02:20:50.808Z,20.57
2019-03-06T02:23:19.044Z,16.00
2019-03-06T02:25:47.252Z,21.60
2019-03-06T02:28:15.472Z,21.53
2019-03-06T02:30:43.744Z,20.23
2019-03-06T02:33:11.920Z,20.70
2019-03-06T02:35:40.432Z,22.13
2019-03-06T02:38:08.676Z,20.33
2019-03-06T02:40:36.867Z,21.53
2019-03-06T02:43:05.048Z,23.20
2019-03-06T02:45:33.285Z,20.67
2019-03-06T02:48:01.485Z,26.40
2019-03-06T02:50:29.711Z,19.57
2019-03-06T02:52:57.926Z,22.27
2019-03-06T02:55:26.979Z,22.60
2019-03-06T02:57:56.831Z,27.00
2019-03-06T03:00:29.370Z,21.97
2019-03-06T03:03:01.943Z,21.00
2019-03-06T03:05:48.455Z,23.30
2019-03-06T03:08:16.638Z,21.40
2019-03-06T03:10:45.099Z,25.27
2019-03-06T03:13:13.314Z,24.57
2019-03-06T03:15:41.537Z,23.70
2019-03-06T03:18:09.750Z,21.53
2019-03-06T03:20:37.976Z,26.00
2019-03-06T03:23:06.279Z,21.77
2019-03-06T03:25:34.532Z,22.87
2019-03-06T03:28:02.746Z,21.87
2019-03-06T03:30:30.962Z,23.13
2019-03-06T03:33:00.150Z,24.53
2019-03-06T03:35:28.421Z,21.20
2019-03-06T03:37:57.113Z,23.93
2019-03-06T03:40:25.423Z,23.43
2019-03-06T03:42:53.637Z,29.50
2019-03-06T03:45:21.958Z,33.13
2019-03-06T03:47:50.242Z,25.40
2019-03-06T03:50:18.550Z,25.53
2019-03-06T03:52:46.810Z,27.93
2019-03-06T03:55:16.007Z,26.20
2019-03-06T03:57:44.272Z,30.53
2019-03-06T04:00:13.760Z,26.17
2019-03-06T04:02:42.083Z,32.47
2019-03-06T04:05:11.001Z,35.03
2019-03-06T04:07:39.219Z,29.70
2019-03-06T04:10:11.055Z,30.23
2019-03-06T04:12:39.278Z,31.90
2019-03-06T04:15:09.018Z,29.40
2019-03-06T04:17:37.573Z,27.23
2019-03-06T04:20:07.344Z,31.60
2019-03-06T04:22:35.599Z,29.63
2019-03-06T04:25:04.944Z,30.93
2019-03-06T04:27:33.132Z,33.10
2019-03-06T04:30:01.367Z,35.50
2019-03-06T04:32:29.621Z,35.60
2019-03-06T04:34:58.852Z,37.50
2019-03-06T04:37:27.028Z,31.53
2019-03-06T04:39:55.219Z,33.40
2019-03-06T04:42:23.407Z,29.97
2019-03-06T04:44:51.645Z,34.17
2019-03-06T04:47:19.930Z,36.60
2019-03-06T04:49:52.584Z,32.33
2019-03-06T04:52:18.043Z,34.83
2019-03-06T04:54:46.231Z,34.10
2019-03-06T04:57:14.774Z,34.90
2019-03-06T04:59:42.949Z,35.50
2019-03-06T05:02:12.095Z,31.97
2019-03-06T05:04:41.249Z,33.53
2019-03-06T05:07:09.489Z,37.10
2019-03-06T05:09:37.853Z,29.20
2019-03-06T05:12:06.064Z,37.73
2019-03-06T05:14:34.243Z,33.37
2019-03-06T05:17:04.104Z,29.83
2019-03-06T05:19:32.324Z,29.80
2019-03-06T05:22:00.614Z,32.63
2019-03-06T05:24:28.829Z,29.63
2019-03-06T05:26:57.052Z,30.07
2019-03-06T05:29:25.324Z,34.87
2019-03-06T05:32:11.838Z,30.20
2019-03-06T05:34:40.056Z,32.50
2019-03-06T05:37:12.775Z,35.50
2019-03-06T05:39:41.062Z,29.77
2019-03-06T05:42:09.317Z,33.37
2019-03-06T05:44:37.970Z,35.17
2019-03-06T05:47:06.248Z,28.50
2019-03-06T05:49:35.401Z,34.13
2019-03-06T05:52:03.609Z,33.33
2019-03-06T05:54:31.796Z,30.63
2019-03-06T05:57:00.364Z,31.70
2019-03-06T05:59:28.567Z,32.57
2019-03-06T06:01:56.752Z,27.83
2019-03-06T06:04:24.953Z,31.47
2019-03-06T06:06:53.138Z,28.83
2019-03-06T06:09:21.364Z,30.60
2019-03-06T06:11:49.682Z,32.70
2019-03-06T06:14:17.960Z,28.00
2019-03-06T06:16:46.160Z,32.13
2019-03-06T06:19:14.361Z,29.30
2019-03-06T06:21:47.123Z,36.80
2019-03-06T06:24:15.313Z,31.50
2019-03-06T06:26:43.535Z,28.30
2019-03-06T06:29:11.765Z,29.60
2019-03-06T06:31:40.308Z,28.87
2019-03-06T06:34:09.469Z,31.10
2019-03-06T06:36:37.700Z,31.73
2019-03-06T06:39:05.929Z,29.33
2019-03-06T06:41:34.219Z,28.83
2019-03-06T06:44:02.504Z,31.77
2019-03-06T06:46:30.896Z,31.47
2019-03-06T06:48:59.288Z,28.33
2019-03-06T06:51:31.809Z,29.73
2019-03-06T06:54:18.029Z,27.63
2019-03-06T06:56:56.600Z,31.83
2019-03-06T06:59:26.359Z,32.47
2019-03-06T07:02:15.973Z,33.70
2019-03-06T07:05:08.737Z,30.80
2019-03-06T07:07:44.575Z,29.60
2019-03-06T07:10:31.075Z,30.80
2019-03-06T07:13:03.883Z,25.03
2019-03-06T07:15:36.672Z,29.83
2019-03-06T07:18:07.597Z,28.40
2019-03-06T07:20:40.161Z,31.10
2019-03-06T07:23:10.053Z,27.73
2019-03-06T07:25:51.773Z,31.03
2019-03-06T07:28:21.703Z,24.73
2019-03-06T07:31:08.208Z,26.93
2019-03-06T07:33:38.035Z,31.10
2019-03-06T07:36:24.774Z,24.23
2019-03-06T07:38:53.404Z,24.80
2019-03-06T07:41:23.261Z,23.43
2019-03-06T07:43:53.224Z,26.57
2019-03-06T07:46:25.772Z,26.33
2019-03-06T07:49:08.069Z,24.83
2019-03-06T07:51:44.157Z,24.17
2019-03-06T07:54:14.039Z,23.50
2019-03-06T07:56:53.393Z,22.50
2019-03-06T07:59:21.641Z,22.37
2019-03-06T08:01:51.398Z,22.33
2019-03-06T08:04:19.620Z,20.80
2019-03-06T08:06:52.135Z,22.97
2019-03-06T08:09:20.494Z,21.63
2019-03-06T08:11:59.380Z,21.30
2019-03-06T08:14:45.562Z,21.90
2019-03-06T08:17:31.785Z,27.20
2019-03-06T08:20:07.834Z,25.30
2019-03-06T08:22:37.735Z,20.57
2019-03-06T08:25:08.236Z,25.07
2019-03-06T08:27:36.444Z,21.60
2019-03-06T08:30:06.348Z,20.93
2019-03-06T08:32:34.704Z,19.90
2019-03-06T08:35:03.019Z,22.23
2019-03-06T08:37:31.217Z,23.83
2019-03-06T08:39:59.433Z,21.87
2019-03-06T08:42:27.828Z,20.63
2019-03-06T08:44:56.020Z,21.20
2019-03-06T08:47:25.914Z,19.53
2019-03-06T08:49:55.744Z,18.57
2019-03-06T08:52:25.631Z,18.80
2019-03-06T08:55:01.347Z,20.63
2019-03-06T08:57:40.481Z,16.80
2019-03-06T09:07:37.365Z,19.63
2019-03-06T09:20:52.749Z,20.10
2019-03-06T09:23:25.308Z,15.75
2019-03-06T09:25:55.441Z,17.40
2019-03-06T09:28:25.328Z,15.80
2019-03-06T09:30:55.167Z,14.27
2019-03-06T09:33:27.925Z,15.80
2019-03-06T09:36:00.729Z,14.65
2019-03-06T09:38:48.719Z,16.17
2019-03-06T09:46:34.633Z,12.97
2019-03-06T09:54:22.570Z,11.60
2019-03-06T10:15:27.569Z,14.00
2019-03-06T10:17:58.345Z,13.33
2019-03-06T10:32:47.025Z,19.05
2019-03-06T10:35:15.684Z,13.85
2019-03-06T10:47:33.653Z,13.40
2019-03-06T10:50:01.973Z,10.30
2019-03-06T10:52:30.409Z,10.40
2019-03-06T10:57:26.133Z,10.25
2019-03-06T10:59:54.444Z,12.83
2019-03-06T11:04:51.978Z,12.75
2019-03-06T11:07:20.253Z,9.93
2019-03-06T11:09:48.605Z,10.15
2019-03-06T11:14:44.637Z,11.30
2019-03-06T11:17:13.291Z,10.30
2019-03-06T11:36:54.507Z,7.50
2019-03-06T11:54:07.281Z,9.40
2019-03-06T12:18:42.561Z,6.80
2019-03-06T12:23:38.245Z,8.80
2019-03-06T12:43:21.402Z,8.10
2019-03-06T12:46:07.080Z,8.83
2019-03-06T12:48:35.329Z,6.63
2019-03-06T12:51:04.419Z,6.50
2019-03-06T12:53:32.757Z,5.40
2019-03-06T12:56:01.026Z,9.33
2019-03-06T12:58:29.361Z,6.50
2019-03-06T13:00:57.638Z,6.73
2019-03-06T13:03:25.913Z,6.33
2019-03-06T13:05:54.244Z,5.30
2019-03-06T13:08:22.492Z,5.50
2019-03-06T13:32:59.988Z,5.20
2019-03-06T13:35:29.850Z,4.27
2019-03-06T13:37:58.294Z,4.73
2019-03-06T13:40:26.571Z,3.17
2019-03-06T13:42:54.792Z,5.63
2019-03-06T13:45:23.333Z,4.60
2019-03-06T13:47:51.621Z,3.63
2019-03-06T13:50:19.949Z,4.50
2019-03-06T13:52:48.220Z,6.13
2019-03-06T13:55:16.772Z,5.93
2019-03-06T13:57:45.613Z,3.40
2019-03-06T14:00:21.769Z,5.23
2019-03-06T14:02:50.936Z,5.15
2019-03-06T14:05:20.537Z,4.80
2019-03-06T14:07:55.978Z,4.97
2019-03-06T14:10:22.725Z,4.60
2019-03-06T14:12:51.373Z,4.30
2019-03-06T14:15:19.745Z,2.80
2019-03-06T14:17:48.273Z,4.70
2019-03-06T14:20:18.087Z,8.20
2019-03-06T14:22:46.398Z,6.97
2019-03-06T14:25:15.497Z,5.67
2019-03-06T14:27:44.384Z,5.40
2019-03-06T14:30:16.441Z,5.60
2019-03-06T14:32:44.733Z,5.80
2019-03-06T14:35:13.481Z,6.97
2019-03-06T14:37:41.745Z,4.40
2019-03-06T14:40:14.419Z,6.87
2019-03-06T14:42:42.927Z,5.27
2019-03-06T14:45:12.717Z,6.45
2019-03-06T14:47:40.976Z,4.83
2019-03-06T14:50:09.156Z,6.80
2019-03-06T14:52:37.361Z,5.10
2019-03-06T14:55:07.159Z,5.70
2019-03-06T15:04:57.856Z,5.93
2019-03-06T15:07:26.085Z,7.97
2019-03-06T15:09:54.417Z,9.40
2019-03-06T15:12:22.666Z,9.15
2019-03-06T15:14:50.919Z,7.40
2019-03-06T15:17:19.368Z,10.43
2019-03-06T15:19:47.698Z,6.30
2019-03-06T15:22:15.973Z,7.80
2019-03-06T15:24:44.258Z,8.20
2019-03-06T15:27:12.560Z,8.43
2019-03-06T15:29:40.935Z,6.17
2019-03-06T15:32:09.235Z,9.33
2019-03-06T15:34:37.441Z,9.20
2019-03-06T15:37:05.687Z,7.27
2019-03-06T15:39:42.755Z,11.57
2019-03-06T15:42:03.843Z,9.37
2019-03-06T15:44:32.458Z,8.27
2019-03-06T15:47:00.717Z,7.87
2019-03-06T15:49:29.735Z,9.00
2019-03-06T15:51:58.120Z,7.77
2019-03-06T15:54:26.325Z,7.43
2019-03-06T15:56:54.632Z,9.67
2019-03-06T15:59:23.009Z,9.37
2019-03-06T16:01:51.282Z,9.40
2019-03-06T16:04:19.694Z,8.40
2019-03-06T16:06:54.013Z,13.03
2019-03-06T16:09:17.874Z,12.73
2019-03-06T16:11:46.093Z,9.73
2019-03-06T16:14:14.683Z,11.03
2019-03-06T16:16:42.932Z,10.50
2019-03-06T16:19:11.203Z,12.40
2019-03-06T16:21:39.490Z,13.10
2019-03-06T16:24:09.715Z,9.93
2019-03-06T16:26:37.679Z,11.10
2019-03-06T16:29:06.180Z,10.13
2019-03-06T16:31:34.433Z,14.40
2019-03-06T16:34:02.708Z,15.50
2019-03-06T16:36:32.233Z,12.33
2019-03-06T16:39:00.485Z,14.70
2019-03-06T16:41:28.764Z,14.80
2019-03-06T16:43:57.288Z,12.17
2019-03-06T16:46:25.774Z,12.83
2019-03-06T16:48:53.956Z,13.40
2019-03-06T16:51:22.181Z,16.65
2019-03-06T16:53:50.436Z,16.97
2019-03-06T16:56:18.676Z,14.40
2019-03-06T16:58:47.238Z,13.57
2019-03-06T17:01:15.494Z,17.50
2019-03-06T17:03:43.785Z,14.60
2019-03-06T17:06:12.091Z,15.20
2019-03-06T17:08:40.385Z,16.97
2019-03-06T17:11:10.573Z,16.47
2019-03-06T17:13:39.049Z,14.55
2019-03-06T17:16:07.336Z,15.00
2019-03-06T17:18:35.564Z,18.20
2019-03-06T17:21:03.826Z,15.80
2019-03-06T17:23:32.069Z,19.33
2019-03-06T17:26:00.276Z,15.87
2019-03-06T17:28:28.576Z,14.97
2019-03-06T17:30:56.900Z,15.30
2019-03-06T17:33:25.100Z,15.20
2019-03-06T17:35:53.331Z,18.33
2019-03-06T17:38:21.629Z,13.10
2019-03-06T17:40:50.082Z,17.50
2019-03-06T17:43:18.429Z,19.10
2019-03-06T17:45:46.737Z,14.93
2019-03-06T17:48:15.048Z,15.07
2019-03-06T17:50:43.304Z,17.13
2019-03-06T17:53:11.645Z,15.60
2019-03-06T17:55:39.932Z,14.93
2019-03-06T17:58:08.254Z,15.10
2019-03-06T18:00:53.677Z,15.10
2019-03-06T18:03:25.884Z,15.60
2019-03-06T18:05:54.175Z,18.40
2019-03-06T18:08:22.394Z,16.60
2019-03-06T18:10:50.891Z,16.10
2019-03-06T18:13:19.169Z,16.67
2019-03-06T18:15:47.456Z,17.27
2019-03-06T18:18:15.721Z,14.00
2019-03-06T18:20:44.071Z,18.27
2019-03-06T18:23:12.325Z,16.40
2019-03-06T18:25:40.666Z,15.93
2019-03-06T18:28:09.020Z,14.73
2019-03-06T18:30:37.700Z,13.60
2019-03-06T18:33:06.017Z,14.10
2019-03-06T18:35:34.333Z,13.33
2019-03-06T18:38:02.632Z,15.40
2019-03-06T18:40:30.977Z,13.80
2019-03-06T18:42:59.592Z,12.00
2019-03-06T18:45:27.856Z,13.30
2019-03-06T18:47:56.158Z,13.87
2019-03-06T18:50:24.755Z,10.73
2019-03-06T18:52:53.003Z,14.37
2019-03-06T18:55:21.462Z,14.97
2019-03-06T18:57:49.784Z,16.40
2019-03-06T19:00:19.832Z,16.47
2019-03-06T19:02:48.083Z,13.10
2019-03-06T19:05:17.149Z,14.70
2019-03-06T19:07:45.365Z,11.93
2019-03-06T19:10:15.040Z,13.07
2019-03-06T19:12:43.365Z,15.77
2019-03-06T19:15:13.287Z,12.23
2019-03-06T19:17:41.588Z,11.00
2019-03-06T19:20:10.020Z,11.20
2019-03-06T19:22:38.419Z,12.50
2019-03-06T19:25:10.476Z,10.27
2019-03-06T19:27:38.713Z,11.50
2019-03-06T19:30:14.365Z,13.60
2019-03-06T19:32:42.681Z,15.20
2019-03-06T19:35:10.999Z,12.00
2019-03-06T19:37:39.273Z,11.50
2019-03-06T19:40:08.825Z,10.97
2019-03-06T19:42:37.040Z,14.60
2019-03-06T19:45:06.989Z,10.73
2019-03-06T19:47:35.293Z,10.80
2019-03-06T19:50:04.850Z,9.97
2019-03-06T19:52:33.138Z,12.20
2019-03-06T19:55:01.465Z,11.13
2019-03-06T19:57:31.300Z,9.30
2019-03-06T19:59:59.683Z,8.43
2019-03-06T20:02:27.889Z,8.70
2019-03-06T20:04:56.148Z,7.97
2019-03-06T20:07:24.401Z,8.60
2019-03-06T20:09:52.737Z,9.37
2019-03-06T20:12:21.021Z,8.70
2019-03-06T20:14:49.268Z,8.37
2019-03-06T20:17:17.535Z,9.03
2019-03-06T20:19:45.741Z,8.50
2019-03-06T20:22:14.050Z,8.37
2019-03-06T20:24:42.321Z,7.53
2019-03-06T20:27:10.633Z,8.73
2019-03-06T20:29:39.019Z,9.50
2019-03-06T20:32:07.222Z,11.07
2019-03-06T20:34:35.511Z,11.40
2019-03-06T20:37:03.997Z,12.53
2019-03-06T20:39:32.319Z,9.83
2019-03-06T20:42:00.645Z,11.60
2019-03-06T20:44:28.921Z,8.20
2019-03-06T20:46:57.209Z,11.83
2019-03-06T20:49:25.754Z,7.33
2019-03-06T20:51:54.041Z,8.60
2019-03-06T20:54:22.337Z,8.97
2019-03-06T20:56:50.590Z,9.53
2019-03-06T20:59:18.937Z,10.20
2019-03-06T21:01:47.183Z,11.87
2019-03-06T21:04:15.468Z,11.37
2019-03-06T21:06:44.069Z,10.70
2019-03-06T21:09:12.356Z,11.03
2019-03-06T21:11:40.610Z,10.00
2019-03-06T21:14:08.840Z,8.47
2019-03-06T21:16:37.049Z,10.50
2019-03-06T21:19:05.441Z,9.53
2019-03-06T21:21:33.692Z,10.00
2019-03-06T21:24:01.973Z,9.40
2019-03-06T21:26:30.271Z,10.53
2019-03-06T21:28:58.719Z,9.40
2019-03-06T21:31:26.968Z,11.37
2019-03-06T21:33:55.187Z,9.90
2019-03-06T21:36:23.492Z,7.57
2019-03-06T21:38:51.736Z,12.40
2019-03-06T21:41:20.034Z,10.30
2019-03-06T21:43:48.280Z,8.30
2019-03-06T21:46:16.858Z,9.37
2019-03-06T21:48:45.153Z,7.53
2019-03-06T21:51:13.436Z,10.03
2019-03-06T21:53:41.768Z,9.10
2019-03-06T21:56:11.582Z,7.90
2019-03-06T21:58:40.019Z,9.20
2019-03-06T22:01:08.338Z,9.03
2019-03-06T22:03:36.575Z,11.87
2019-03-06T22:06:04.869Z,8.67
2019-03-06T22:08:33.129Z,10.00
2019-03-06T22:11:01.313Z,9.17
2019-03-06T22:13:29.549Z,11.00
2019-03-06T22:15:57.748Z,8.10
2019-03-06T22:18:26.129Z,9.60
2019-03-06T22:20:54.379Z,9.20
2019-03-06T22:23:22.638Z,9.43
2019-03-06T22:25:50.925Z,8.83
2019-03-06T22:28:19.212Z,11.07
2019-03-06T22:30:47.493Z,8.77
2019-03-06T22:33:15.976Z,8.40
2019-03-06T22:35:44.391Z,9.33
2019-03-06T22:38:12.626Z,7.80
2019-03-06T22:40:40.946Z,10.17
2019-03-06T22:43:09.195Z,9.37
2019-03-06T22:45:37.502Z,11.70
2019-03-06T22:48:05.757Z,10.53
2019-03-06T22:50:34.326Z,8.77
2019-03-06T22:53:02.622Z,10.43
2019-03-06T22:55:30.924Z,10.70
2019-03-06T22:57:59.096Z,9.67
2019-03-06T23:00:28.845Z,10.40
2019-03-06T23:02:57.457Z,9.70
2019-03-06T23:05:29.841Z,11.90
2019-03-06T23:07:58.096Z,9.00
2019-03-06T23:10:26.324Z,10.37
2019-03-06T23:12:54.611Z,9.93
2019-03-06T23:15:22.793Z,8.50
2019-03-06T23:17:51.089Z,8.30
2019-03-06T23:20:19.320Z,9.13
2019-03-06T23:22:47.645Z,9.50
2019-03-06T23:25:18.027Z,8.73
2019-03-06T23:27:45.785Z,10.00
2019-03-06T23:30:14.783Z,9.40
2019-03-06T23:32:43.051Z,9.67
2019-03-06T23:35:11.300Z,9.60
2019-03-06T23:37:39.497Z,10.10
2019-03-06T23:40:09.268Z,10.07
2019-03-06T23:42:37.522Z,9.70
2019-03-06T23:45:06.540Z,9.50
2019-03-06T23:47:35.008Z,9.20
2019-03-06T23:50:04.300Z,11.30
2019-03-06T23:52:34.121Z,7.80
2019-03-06T23:55:02.332Z,9.00
2019-03-06T23:57:30.605Z,10.00
2019-03-06T23:59:58.913Z,9.13
